createdAt,value
2022-09-23T00:00:22.941Z,77.31
2022-09-23T00:01:24.788Z,77.09
2022-09-23T00:02:26.408Z,77.66
2022-09-23T00:03:31.549Z,77.57
2022-09-23T00:04:33.127Z,77.73
2022-09-23T00:05:34.855Z,77.80
2022-09-23T00:06:36.544Z,77.68
2022-09-23T00:07:38.593Z,77.93
2022-09-23T00:08:41.059Z,78.26
2022-09-23T00:09:42.896Z,78.38
2022-09-23T00:10:44.588Z,78.51
2022-09-23T00:11:46.261Z,78.55
2022-09-23T00:12:48.665Z,78.70
2022-09-23T00:13:53.298Z,78.14
2022-09-23T00:14:54.943Z,78.40
2022-09-23T00:15:56.521Z,77.72
2022-09-23T00:16:58.173Z,77.85
2022-09-23T00:18:00.114Z,77.62
2022-09-23T00:19:02.599Z,77.85
2022-09-23T00:20:04.899Z,78.14
2022-09-23T00:21:09.185Z,78.76
2022-09-23T00:22:13.852Z,78.76
2022-09-23T00:23:15.447Z,78.30
2022-09-23T00:24:17.227Z,78.78
2022-09-23T00:25:19.478Z,78.53
2022-09-23T00:26:22.964Z,78.08
2022-09-23T00:27:24.695Z,78.60
2022-09-23T00:28:26.595Z,78.73
2022-09-23T00:29:28.096Z,78.58
2022-09-23T00:30:32.091Z,78.44
2022-09-23T00:31:33.865Z,78.09
2022-09-23T00:32:36.799Z,77.87
2022-09-23T00:33:40.501Z,77.95
2022-09-23T00:34:44.280Z,77.87
2022-09-23T00:35:47.332Z,77.88
2022-09-23T00:36:48.918Z,77.73
2022-09-23T00:37:50.536Z,77.35
2022-09-23T00:38:53.470Z,77.27
2022-09-23T00:39:55.605Z,77.53
2022-09-23T00:40:58.386Z,76.73
2022-09-23T00:42:00.516Z,76.69
2022-09-23T00:43:02.085Z,76.93
2022-09-23T00:44:59.217Z,77.01
2022-09-23T00:46:00.779Z,77.16
2022-09-23T00:47:02.528Z,77.03
2022-09-23T00:48:05.249Z,76.89
2022-09-23T00:49:12.561Z,76.81
2022-09-23T00:50:17.620Z,76.85
2022-09-23T00:51:25.040Z,76.74
2022-09-23T00:52:26.598Z,76.88
2022-09-23T00:53:34.645Z,76.74
2022-09-23T00:54:36.460Z,76.81
2022-09-23T00:56:01.123Z,77.60
2022-09-23T00:57:05.488Z,76.77
2022-09-23T00:58:11.157Z,76.92
2022-09-23T00:59:13.892Z,77.00
2022-09-23T01:00:15.824Z,77.41
2022-09-23T01:01:19.042Z,77.24
2022-09-23T01:02:23.882Z,77.20
2022-09-23T01:03:25.850Z,77.83
2022-09-23T01:04:29.870Z,77.18
2022-09-23T01:05:34.407Z,77.51
2022-09-23T01:06:36.577Z,77.91
2022-09-23T01:07:39.161Z,78.19
2022-09-23T01:08:44.090Z,77.98
2022-09-23T01:09:50.433Z,77.80
2022-09-23T01:11:24.284Z,77.60
2022-09-23T01:12:56.133Z,77.98
2022-09-23T01:14:09.894Z,77.45
2022-09-23T01:15:16.823Z,77.67
2022-09-23T01:16:48.942Z,78.00
2022-09-23T01:18:05.625Z,78.07
2022-09-23T01:19:38.111Z,77.89
2022-09-23T01:21:04.185Z,77.79
2022-09-23T01:22:22.582Z,78.24
2022-09-23T01:23:46.587Z,78.12
2022-09-23T01:25:06.421Z,78.64
2022-09-23T01:26:37.578Z,78.65
2022-09-23T01:27:57.896Z,78.66
2022-09-23T01:29:16.110Z,78.71
2022-09-23T01:30:55.195Z,78.86
2022-09-23T01:32:07.054Z,78.97
2022-09-23T01:33:20.151Z,78.76
2022-09-23T01:34:44.572Z,78.96
2022-09-23T01:35:58.070Z,79.75
2022-09-23T01:37:21.414Z,79.40
2022-09-23T01:38:45.133Z,79.49
2022-09-23T01:40:10.214Z,78.88
2022-09-23T01:41:41.609Z,79.13
2022-09-23T01:42:53.588Z,78.39
2022-09-23T01:44:08.849Z,78.15
2022-09-23T01:45:17.783Z,78.25
2022-09-23T01:46:30.467Z,78.06
2022-09-23T01:47:44.747Z,78.16
2022-09-23T01:49:02.423Z,78.54
2022-09-23T01:50:28.975Z,78.59
2022-09-23T01:51:39.589Z,79.09
2022-09-23T01:52:47.312Z,79.32
2022-09-23T01:54:03.406Z,79.67
2022-09-23T01:55:17.282Z,79.85
2022-09-23T01:56:24.915Z,79.59
2022-09-23T01:57:41.455Z,79.60
2022-09-23T01:59:09.401Z,79.98
2022-09-23T02:00:15.719Z,80.30
2022-09-23T02:01:29.310Z,80.63
2022-09-23T02:02:44.313Z,80.45
2022-09-23T02:03:50.293Z,80.44
2022-09-23T02:04:56.909Z,80.39
2022-09-23T02:06:12.572Z,81.19
2022-09-23T02:07:52.727Z,81.16
2022-09-23T02:09:06.007Z,81.87
2022-09-23T02:10:15.497Z,82.07
2022-09-23T02:11:18.115Z,82.96
2022-09-23T02:12:24.453Z,82.94
2022-09-23T02:13:32.854Z,82.81
2022-09-23T02:14:53.256Z,83.76
2022-09-23T02:16:03.698Z,83.53
2022-09-23T02:17:13.177Z,84.41
2022-09-23T02:18:20.208Z,83.78
2022-09-23T02:19:28.211Z,83.74
2022-09-23T02:20:34.611Z,84.15
2022-09-23T02:21:41.131Z,84.70
2022-09-23T02:22:56.063Z,84.77
2022-09-23T02:24:09.100Z,85.03
2022-09-23T02:25:12.605Z,85.63
2022-09-23T02:26:30.596Z,85.78
2022-09-23T02:27:57.189Z,86.02
2022-09-23T02:29:29.416Z,86.87
2022-09-23T02:30:39.780Z,86.54
2022-09-23T02:32:20.533Z,86.99
2022-09-23T02:33:39.431Z,87.64
2022-09-23T02:34:59.437Z,87.23
2022-09-23T02:36:10.222Z,87.54
2022-09-23T02:37:21.456Z,87.82
2022-09-23T02:38:39.294Z,87.48
2022-09-23T02:40:00.870Z,87.19
2022-09-23T02:41:18.030Z,87.38
2022-09-23T02:42:53.914Z,86.53
2022-09-23T02:44:02.620Z,86.67
2022-09-23T02:45:05.876Z,86.98
2022-09-23T02:46:07.921Z,87.97
2022-09-23T02:47:10.584Z,88.81
2022-09-23T02:48:22.851Z,89.26
2022-09-23T02:49:29.825Z,89.47
2022-09-23T02:50:33.174Z,89.46
2022-09-23T02:51:40.074Z,89.68
2022-09-23T02:52:41.818Z,89.72
2022-09-23T02:53:43.457Z,89.81
2022-09-23T02:59:09.188Z,90.64
2022-09-23T03:00:12.488Z,90.81
2022-09-23T03:01:32.587Z,90.84
2022-09-23T03:02:59.458Z,91.53
2022-09-23T03:04:05.162Z,92.14
2022-09-23T03:05:23.874Z,92.18
2022-09-23T03:06:32.656Z,92.64
2022-09-23T03:08:05.424Z,92.62
2022-09-23T03:09:13.422Z,93.22
2022-09-23T03:10:42.058Z,93.42
2022-09-23T03:11:50.496Z,93.71
2022-09-23T03:13:04.648Z,94.12
2022-09-23T03:14:22.001Z,93.97
2022-09-23T03:15:35.613Z,94.06
2022-09-23T03:16:46.292Z,93.37
2022-09-23T03:18:31.639Z,93.58
2022-09-23T03:20:10.116Z,93.23
2022-09-23T03:21:28.729Z,92.91
2022-09-23T03:22:47.147Z,93.27
2022-09-23T03:23:50.183Z,93.13
2022-09-23T03:24:54.269Z,92.65
2022-09-23T03:25:58.332Z,92.87
2022-09-23T03:27:05.208Z,92.51
2022-09-23T03:28:08.650Z,92.35
2022-09-23T03:29:12.529Z,92.46
2022-09-23T03:30:21.891Z,92.27
2022-09-23T03:31:26.292Z,91.93
2022-09-23T03:32:29.673Z,91.88
2022-09-23T03:33:32.817Z,91.85
2022-09-23T03:34:36.830Z,91.65
2022-09-23T03:36:20.425Z,91.67
2022-09-23T03:37:34.468Z,91.85
2022-09-23T03:38:40.221Z,92.11
2022-09-23T03:39:48.215Z,91.99
2022-09-23T03:40:51.058Z,92.82
2022-09-23T03:41:56.425Z,92.14
2022-09-23T03:43:04.556Z,92.71
2022-09-23T03:44:08.239Z,92.97
2022-09-23T03:45:17.122Z,93.23
2022-09-23T03:46:18.800Z,93.33
2022-09-23T03:47:21.982Z,94.10
2022-09-23T03:48:25.349Z,94.02
2022-09-23T03:49:34.228Z,93.35
2022-09-23T03:50:35.929Z,93.77
2022-09-23T03:51:39.518Z,93.81
2022-09-23T03:52:44.854Z,94.05
2022-09-23T03:53:46.416Z,94.08
2022-09-23T03:54:52.161Z,94.03
2022-09-23T03:55:53.758Z,94.57
2022-09-23T03:57:01.846Z,94.47
2022-09-23T03:58:04.785Z,94.93
2022-09-23T03:59:06.495Z,94.61
2022-09-23T04:00:11.855Z,94.44
2022-09-23T04:01:14.932Z,94.80
2022-09-23T04:02:18.134Z,94.21
2022-09-23T04:03:19.925Z,94.46
2022-09-23T04:04:21.438Z,94.61
2022-09-23T04:05:23.031Z,95.33
2022-09-23T04:06:24.724Z,96.28
2022-09-23T04:07:26.490Z,95.79
2022-09-23T04:08:28.067Z,95.47
2022-09-23T04:09:30.147Z,95.65
2022-09-23T04:10:31.784Z,94.95
2022-09-23T04:11:33.675Z,94.69
2022-09-23T04:12:35.420Z,95.04
2022-09-23T04:13:37.010Z,94.73
2022-09-23T04:14:39.265Z,95.38
2022-09-23T04:15:40.839Z,95.07
2022-09-23T04:16:42.688Z,95.72
2022-09-23T04:17:44.261Z,96.12
2022-09-23T04:18:45.902Z,96.40
2022-09-23T04:19:47.493Z,96.35
2022-09-23T04:20:49.467Z,96.82
2022-09-23T04:21:51.013Z,96.94
2022-09-23T04:22:52.627Z,97.55
2022-09-23T04:23:54.154Z,98.81
2022-09-23T04:24:56.154Z,98.44
2022-09-23T04:25:57.675Z,98.57
2022-09-23T04:26:59.815Z,99.06
2022-09-23T04:28:01.624Z,98.86
2022-09-23T04:29:04.911Z,98.45
2022-09-23T04:30:07.095Z,98.39
2022-09-23T04:31:09.978Z,99.14
2022-09-23T04:32:11.913Z,99.17
2022-09-23T04:33:13.744Z,98.66
2022-09-23T04:34:19.381Z,98.89
2022-09-23T04:35:20.927Z,98.78
2022-09-23T04:36:22.763Z,99.61
2022-09-23T04:37:24.297Z,100.00
2022-09-23T04:38:26.194Z,100.00
2022-09-23T04:39:27.772Z,100.00
2022-09-23T04:40:29.518Z,100.00
2022-09-23T04:41:31.484Z,100.00
2022-09-23T04:42:34.649Z,100.00
2022-09-23T04:43:36.250Z,100.00
2022-09-23T04:44:38.925Z,100.00
2022-09-23T04:45:40.405Z,100.00
2022-09-23T04:46:43.979Z,100.00
2022-09-23T04:47:45.597Z,100.00
2022-09-23T04:48:48.432Z,100.00
2022-09-23T04:49:49.956Z,100.00
2022-09-23T04:50:51.523Z,100.00
2022-09-23T04:51:53.130Z,100.00
2022-09-23T04:52:55.264Z,100.00
2022-09-23T04:53:57.507Z,100.00
2022-09-23T04:54:59.327Z,100.00
2022-09-23T04:56:02.843Z,100.00
2022-09-23T04:57:04.443Z,100.00
2022-09-23T04:58:05.913Z,100.00
2022-09-23T04:59:07.949Z,100.00
2022-09-23T05:00:12.284Z,100.00
2022-09-23T05:01:28.109Z,100.00
2022-09-23T05:02:30.155Z,100.00
2022-09-23T05:03:35.328Z,100.00
2022-09-23T05:04:36.886Z,100.00
2022-09-23T05:05:38.440Z,100.00
2022-09-23T05:06:40.536Z,100.00
2022-09-23T05:07:42.169Z,100.00
2022-09-23T05:08:52.210Z,100.00
2022-09-23T05:09:53.807Z,100.00
2022-09-23T05:10:58.949Z,100.00
2022-09-23T05:12:00.610Z,100.00
2022-09-23T05:13:03.484Z,100.00
2022-09-23T05:14:05.215Z,100.00
2022-09-23T05:15:07.361Z,100.00
2022-09-23T05:16:12.622Z,100.00
2022-09-23T05:17:15.719Z,100.00
2022-09-23T05:18:20.723Z,100.00
2022-09-23T05:19:23.041Z,100.00
2022-09-23T05:20:25.043Z,100.00
2022-09-23T05:21:30.430Z,100.00
2022-09-23T05:22:32.131Z,100.00
2022-09-23T05:23:34.229Z,100.00
2022-09-23T05:24:36.506Z,100.00
2022-09-23T05:25:38.769Z,100.00
2022-09-23T05:26:40.769Z,100.00
2022-09-23T05:27:52.155Z,100.00
2022-09-23T05:28:54.306Z,100.00
2022-09-23T05:29:55.836Z,100.00
2022-09-23T05:31:06.123Z,100.00
2022-09-23T05:32:08.001Z,100.00
2022-09-23T05:33:09.570Z,100.00
2022-09-23T05:34:12.304Z,100.00
2022-09-23T05:35:14.124Z,100.00
2022-09-23T05:36:17.755Z,100.00
2022-09-23T05:37:19.262Z,100.00
2022-09-23T05:38:21.115Z,100.00
2022-09-23T05:39:22.785Z,98.24
2022-09-23T05:40:24.439Z,96.72
2022-09-23T05:41:26.387Z,95.72
2022-09-23T05:42:28.540Z,94.57
2022-09-23T05:43:31.058Z,94.25
2022-09-23T05:44:32.677Z,93.69
2022-09-23T05:45:34.268Z,92.98
2022-09-23T05:46:36.631Z,92.28
2022-09-23T05:47:38.220Z,92.33
2022-09-23T05:48:41.539Z,92.15
2022-09-23T05:49:59.280Z,91.50
2022-09-23T05:51:01.816Z,91.19
2022-09-23T05:52:03.396Z,90.77
2022-09-23T05:53:05.026Z,90.15
2022-09-23T05:54:06.887Z,90.35
2022-09-23T05:55:08.950Z,89.96
2022-09-23T05:56:11.361Z,90.09
2022-09-23T05:57:12.989Z,89.64
2022-09-23T05:58:14.950Z,89.29
2022-09-23T05:59:16.523Z,89.27
2022-09-23T06:00:18.109Z,89.34
2022-09-23T06:01:25.265Z,88.89
2022-09-23T06:02:26.824Z,88.28
2022-09-23T06:03:28.546Z,87.75
2022-09-23T06:04:31.048Z,87.55
2022-09-23T06:05:35.506Z,87.65
2022-09-23T06:06:39.137Z,87.14
2022-09-23T06:07:40.778Z,87.01
2022-09-23T06:08:43.125Z,87.68
2022-09-23T06:09:45.448Z,87.40
2022-09-23T06:10:54.465Z,87.34
2022-09-23T06:11:58.747Z,86.07
2022-09-23T06:13:00.474Z,85.54
2022-09-23T06:14:02.715Z,85.31
2022-09-23T06:15:05.178Z,85.59
2022-09-23T06:16:14.512Z,84.22
2022-09-23T06:17:16.513Z,83.21
2022-09-23T06:18:18.906Z,82.05
2022-09-23T06:19:20.525Z,80.42
2022-09-23T06:20:22.081Z,79.47
2022-09-23T06:21:23.852Z,78.66
2022-09-23T06:22:25.331Z,77.62
2022-09-23T06:23:26.879Z,77.51
2022-09-23T06:24:31.280Z,77.18
2022-09-23T06:25:34.618Z,76.33
2022-09-23T06:26:37.917Z,75.61
2022-09-23T06:27:39.600Z,75.19
2022-09-23T06:28:43.044Z,74.89
2022-09-23T06:29:44.706Z,74.07
2022-09-23T06:30:46.262Z,73.37
2022-09-23T06:31:49.812Z,71.35
2022-09-23T06:32:53.648Z,71.25
2022-09-23T06:34:06.326Z,70.39
2022-09-23T06:35:23.149Z,69.59
2022-09-23T06:36:40.178Z,67.32
2022-09-23T06:37:45.300Z,66.84
2022-09-23T06:38:49.330Z,66.74
2022-09-23T06:39:51.226Z,64.83
2022-09-23T06:40:55.732Z,65.38
2022-09-23T06:41:57.249Z,65.52
2022-09-23T06:43:02.230Z,66.59
2022-09-23T06:44:03.943Z,64.56
2022-09-23T06:45:05.775Z,63.61
2022-09-23T06:46:08.597Z,64.76
2022-09-23T06:47:10.260Z,66.51
2022-09-23T06:48:12.023Z,64.79
2022-09-23T06:49:13.694Z,64.73
2022-09-23T06:50:15.394Z,65.27
2022-09-23T06:51:20.360Z,66.05
2022-09-23T06:52:21.954Z,64.56
2022-09-23T06:53:23.675Z,64.76
2022-09-23T06:54:28.363Z,67.06
2022-09-23T06:55:30.372Z,65.71
2022-09-23T06:56:36.347Z,65.42
2022-09-23T06:57:41.514Z,65.69
2022-09-23T06:58:43.519Z,65.46
2022-09-23T06:59:45.086Z,64.79
2022-09-23T07:00:46.703Z,67.35
2022-09-23T07:01:48.489Z,66.83
2022-09-23T07:02:50.602Z,68.95
2022-09-23T07:03:52.374Z,67.89
2022-09-23T07:04:56.797Z,67.46
2022-09-23T07:05:59.283Z,67.58
2022-09-23T07:07:00.939Z,67.26
2022-09-23T07:08:04.754Z,68.17
2022-09-23T07:09:07.349Z,68.54
2022-09-23T07:10:09.673Z,67.73
2022-09-23T07:11:13.189Z,66.77
2022-09-23T07:12:15.000Z,66.38
2022-09-23T07:13:16.561Z,65.44
2022-09-23T07:14:18.062Z,64.90
2022-09-23T07:15:19.753Z,65.02
2022-09-23T07:16:21.687Z,65.17
2022-09-23T07:17:24.762Z,63.54
2022-09-23T07:18:27.049Z,64.19
2022-09-23T07:19:28.690Z,64.52
2022-09-23T07:20:30.282Z,63.98
2022-09-23T07:21:32.653Z,62.49
2022-09-23T07:22:34.239Z,62.37
2022-09-23T07:23:37.652Z,62.16
2022-09-23T07:24:39.219Z,61.71
2022-09-23T07:25:42.358Z,60.37
2022-09-23T07:26:45.802Z,59.94
2022-09-23T07:27:48.167Z,59.16
2022-09-23T07:28:55.372Z,58.64
2022-09-23T07:29:57.226Z,57.72
2022-09-23T07:31:03.489Z,57.40
2022-09-23T07:32:13.396Z,56.40
2022-09-23T07:33:30.480Z,56.63
2022-09-23T07:34:33.932Z,56.00
2022-09-23T07:35:40.928Z,55.24
2022-09-23T07:36:42.555Z,53.73
2022-09-23T07:37:45.039Z,52.80
2022-09-23T07:38:47.433Z,52.86
2022-09-23T07:39:49.180Z,52.08
2022-09-23T07:40:52.354Z,52.22
2022-09-23T07:41:54.320Z,53.47
2022-09-23T07:42:59.635Z,54.70
2022-09-23T07:44:01.393Z,54.86
2022-09-23T07:45:03.256Z,55.68
2022-09-23T07:46:10.252Z,55.32
2022-09-23T07:47:11.857Z,54.71
2022-09-23T07:48:13.882Z,53.41
2022-09-23T07:49:16.010Z,53.15
2022-09-23T07:50:19.111Z,52.17
2022-09-23T07:51:24.173Z,52.51
2022-09-23T07:52:25.711Z,52.34
2022-09-23T07:53:27.517Z,53.65
2022-09-23T07:54:29.985Z,53.33
2022-09-23T07:55:31.725Z,54.08
2022-09-23T07:56:35.130Z,56.43
2022-09-23T07:57:36.886Z,57.28
2022-09-23T07:58:38.561Z,56.99
2022-09-23T07:59:40.661Z,55.49
2022-09-23T08:00:42.302Z,53.06
2022-09-23T08:01:50.554Z,55.54
2022-09-23T08:02:53.209Z,54.61
2022-09-23T08:03:57.399Z,52.93
2022-09-23T08:04:59.231Z,50.33
2022-09-23T08:06:12.022Z,49.81
2022-09-23T08:07:13.791Z,49.84
2022-09-23T08:08:15.437Z,49.97
2022-09-23T08:09:18.916Z,51.18
2022-09-23T08:10:21.099Z,51.42
2022-09-23T08:11:24.006Z,51.90
2022-09-23T08:12:25.644Z,50.33
2022-09-23T08:13:27.387Z,49.36
2022-09-23T08:14:29.221Z,47.96
2022-09-23T08:15:31.207Z,46.89
2022-09-23T08:16:32.996Z,46.34
2022-09-23T08:17:34.760Z,46.01
2022-09-23T08:18:36.901Z,45.28
2022-09-23T08:19:38.823Z,44.26
2022-09-23T08:20:47.830Z,43.36
2022-09-23T08:21:52.320Z,42.87
2022-09-23T08:22:54.625Z,42.35
2022-09-23T08:23:56.190Z,41.72
2022-09-23T08:24:58.454Z,39.82
2022-09-23T08:26:02.568Z,39.06
2022-09-23T08:27:04.159Z,38.62
2022-09-23T08:28:05.821Z,37.88
2022-09-23T08:29:10.136Z,37.20
2022-09-23T08:30:14.665Z,36.73
2022-09-23T08:31:16.602Z,35.87
2022-09-23T08:32:18.162Z,35.02
2022-09-23T08:33:23.374Z,35.01
2022-09-23T08:34:27.912Z,34.76
2022-09-23T08:35:29.543Z,34.53
2022-09-23T08:36:31.809Z,34.33
2022-09-23T08:37:33.592Z,34.16
2022-09-23T08:38:35.245Z,33.06
2022-09-23T08:39:36.806Z,33.05
2022-09-23T08:40:42.215Z,32.25
2022-09-23T08:41:58.807Z,31.58
2022-09-23T08:43:01.055Z,31.91
2022-09-23T08:44:15.083Z,31.13
2022-09-23T08:45:22.515Z,30.92
2022-09-23T08:46:28.738Z,30.59
2022-09-23T08:47:51.690Z,30.65
2022-09-23T08:48:54.716Z,30.21
2022-09-23T08:50:02.338Z,30.07
2022-09-23T08:51:07.333Z,30.17
2022-09-23T08:52:22.908Z,28.52
2022-09-23T08:53:27.565Z,29.89
2022-09-23T08:54:31.303Z,32.18
2022-09-23T08:55:35.812Z,32.97
2022-09-23T08:56:38.707Z,33.35
2022-09-23T08:58:24.503Z,33.89
2022-09-23T08:59:45.140Z,35.20
2022-09-23T09:00:59.810Z,35.34
2022-09-23T09:02:16.650Z,36.61
2022-09-23T09:03:23.933Z,38.38
2022-09-23T09:04:39.058Z,37.75
2022-09-23T09:05:41.214Z,36.75
2022-09-23T09:07:24.582Z,34.57
2022-09-23T09:08:36.525Z,32.76
2022-09-23T09:09:39.189Z,33.32
2022-09-23T09:10:46.932Z,31.56
2022-09-23T09:11:51.484Z,31.43
2022-09-23T09:13:21.910Z,31.37
2022-09-23T09:14:38.006Z,31.02
2022-09-23T09:15:51.398Z,29.59
2022-09-23T09:17:00.906Z,29.58
2022-09-23T09:18:25.509Z,29.77
2022-09-23T09:20:06.350Z,30.38
2022-09-23T09:21:11.847Z,29.57
2022-09-23T09:22:53.874Z,28.03
2022-09-23T09:23:57.775Z,30.17
2022-09-23T09:25:10.077Z,29.33
2022-09-23T09:26:26.893Z,29.81
2022-09-23T09:27:28.769Z,30.04
2022-09-23T09:28:40.010Z,30.25
2022-09-23T09:29:50.077Z,32.02
2022-09-23T09:30:56.586Z,32.85
2022-09-23T09:31:59.709Z,32.24
2022-09-23T09:33:13.279Z,31.70
2022-09-23T09:34:43.078Z,30.83
2022-09-23T09:36:09.112Z,30.87
2022-09-23T09:37:35.857Z,30.84
2022-09-23T09:38:37.838Z,31.63
2022-09-23T09:39:42.487Z,30.85
2022-09-23T09:40:47.768Z,30.65
2022-09-23T09:41:58.551Z,29.83
2022-09-23T09:43:05.895Z,29.40
2022-09-23T09:44:24.259Z,29.45
2022-09-23T09:46:03.456Z,30.38
2022-09-23T09:47:15.155Z,29.85
2022-09-23T09:48:38.705Z,29.25
2022-09-23T09:49:49.236Z,30.08
2022-09-23T09:50:53.453Z,30.38
2022-09-23T09:52:26.838Z,30.81
2022-09-23T09:53:32.047Z,31.88
2022-09-23T09:54:33.651Z,30.07
2022-09-23T09:55:36.060Z,29.97
2022-09-23T09:56:37.824Z,31.18
2022-09-23T09:57:44.185Z,30.61
2022-09-23T09:58:52.136Z,30.55
2022-09-23T09:59:53.884Z,32.55
2022-09-23T10:00:57.052Z,32.73
2022-09-23T10:02:22.841Z,31.88
2022-09-23T10:03:32.336Z,31.12
2022-09-23T10:04:35.659Z,31.84
2022-09-23T10:05:46.317Z,30.16
2022-09-23T10:07:15.568Z,30.26
2022-09-23T10:08:27.996Z,29.82
2022-09-23T10:09:34.791Z,30.73
2022-09-23T10:10:36.367Z,32.45
2022-09-23T10:11:38.947Z,32.45
2022-09-23T10:12:49.553Z,31.69
2022-09-23T10:14:19.179Z,31.51
2022-09-23T10:15:33.073Z,32.68
2022-09-23T10:16:35.098Z,32.50
2022-09-23T10:17:39.006Z,32.48
2022-09-23T10:18:46.648Z,32.34
2022-09-23T10:19:55.319Z,33.66
2022-09-23T10:21:02.665Z,33.92
2022-09-23T10:22:15.617Z,33.66
2022-09-23T10:23:25.112Z,32.52
2022-09-23T10:24:30.522Z,32.70
2022-09-23T10:25:34.971Z,33.26
2022-09-23T10:26:39.440Z,32.93
2022-09-23T10:27:41.118Z,33.00
2022-09-23T10:28:48.815Z,32.87
2022-09-23T10:29:54.270Z,32.36
2022-09-23T10:31:08.832Z,31.04
2022-09-23T10:32:28.831Z,32.29
2022-09-23T10:33:31.716Z,32.62
2022-09-23T10:34:33.840Z,33.19
2022-09-23T10:35:35.829Z,33.36
2022-09-23T10:36:40.134Z,33.55
2022-09-23T10:37:56.543Z,32.32
2022-09-23T10:39:21.029Z,31.47
2022-09-23T10:41:02.292Z,31.62
2022-09-23T10:42:36.516Z,31.27
2022-09-23T10:44:15.204Z,30.92
2022-09-23T10:45:53.854Z,30.59
2022-09-23T10:47:17.083Z,31.29
2022-09-23T10:48:27.941Z,31.14
2022-09-23T10:49:53.745Z,31.75
2022-09-23T10:50:59.458Z,31.71
2022-09-23T10:52:03.953Z,29.80
2022-09-23T10:53:17.682Z,31.12
2022-09-23T10:54:57.072Z,31.82
2022-09-23T10:56:16.528Z,32.55
2022-09-23T10:57:38.095Z,30.43
2022-09-23T10:59:14.288Z,30.11
2022-09-23T11:00:37.912Z,32.01
2022-09-23T11:01:59.092Z,31.25
2022-09-23T11:03:25.610Z,32.55
2022-09-23T11:04:59.433Z,30.54
2022-09-23T11:06:41.277Z,31.15
2022-09-23T11:08:24.540Z,29.88
2022-09-23T11:09:59.400Z,29.03
2022-09-23T11:11:11.522Z,28.29
2022-09-23T11:12:16.409Z,29.19
2022-09-23T11:13:29.501Z,29.39
2022-09-23T11:14:50.590Z,30.88
2022-09-23T11:16:05.559Z,31.74
2022-09-23T11:17:33.410Z,33.29
2022-09-23T11:19:10.767Z,31.99
2022-09-23T11:20:47.432Z,31.33
2022-09-23T11:22:05.438Z,27.98
2022-09-23T11:23:54.392Z,29.08
2022-09-23T11:25:14.611Z,28.76
2022-09-23T11:26:36.632Z,28.40
2022-09-23T11:27:47.504Z,28.72
2022-09-23T11:29:17.025Z,29.60
2022-09-23T11:30:20.332Z,30.53
2022-09-23T11:31:47.924Z,30.68
2022-09-23T11:34:38.706Z,30.61
2022-09-23T11:35:50.894Z,30.26
2022-09-23T11:37:05.866Z,30.37
2022-09-23T11:38:40.173Z,29.61
2022-09-23T11:39:56.300Z,28.74
2022-09-23T11:41:12.254Z,30.46
2022-09-23T11:42:21.638Z,29.85
2022-09-23T11:43:24.631Z,30.19
2022-09-23T11:44:32.496Z,30.50
2022-09-23T11:45:41.181Z,30.47
2022-09-23T11:46:45.135Z,31.36
2022-09-23T11:47:57.819Z,31.99
2022-09-23T11:49:09.383Z,31.92
2022-09-23T11:50:33.207Z,32.17
2022-09-23T11:52:20.591Z,33.21
2022-09-23T11:53:36.329Z,31.76
2022-09-23T11:54:51.504Z,31.55
2022-09-23T11:56:07.113Z,32.57
2022-09-23T11:57:19.260Z,32.05
2022-09-23T11:58:29.341Z,32.67
2022-09-23T11:59:40.935Z,33.52
2022-09-23T12:00:52.867Z,32.90
2022-09-23T12:02:18.068Z,31.96
2022-09-23T12:03:39.750Z,32.54
2022-09-23T12:04:57.534Z,31.95
2022-09-23T12:06:14.357Z,31.47
2022-09-23T12:07:24.501Z,31.75
2022-09-23T12:08:32.460Z,33.03
2022-09-23T12:09:58.166Z,33.98
2022-09-23T12:11:21.489Z,33.84
2022-09-23T12:12:47.925Z,34.84
2022-09-23T12:14:32.474Z,36.13
2022-09-23T12:15:37.318Z,37.15
2022-09-23T12:16:42.473Z,36.61
2022-09-23T12:18:15.932Z,37.03
2022-09-23T12:19:37.890Z,36.77
2022-09-23T12:20:42.320Z,37.28
2022-09-23T12:22:09.853Z,37.24
2022-09-23T12:23:32.887Z,36.88
2022-09-23T12:24:52.264Z,37.01
2022-09-23T12:25:57.786Z,37.37
2022-09-23T12:27:06.071Z,38.87
2022-09-23T12:28:15.586Z,39.63
2022-09-23T12:29:17.430Z,39.55
2022-09-23T12:30:22.209Z,39.30
2022-09-23T12:31:30.624Z,39.42
2022-09-23T12:32:33.910Z,40.67
2022-09-23T12:33:36.509Z,39.27
2022-09-23T12:34:48.751Z,40.29
2022-09-23T12:35:56.015Z,40.75
2022-09-23T12:37:04.105Z,41.67
2022-09-23T12:38:14.924Z,41.28
2022-09-23T12:39:38.612Z,40.80
2022-09-23T12:40:44.654Z,39.95
2022-09-23T12:41:51.794Z,40.11
2022-09-23T12:42:53.761Z,39.78
2022-09-23T12:44:13.908Z,37.74
2022-09-23T12:45:34.713Z,38.37
2022-09-23T12:46:36.638Z,37.66
2022-09-23T12:47:39.875Z,36.09
2022-09-23T12:48:46.918Z,36.49
2022-09-23T12:49:49.549Z,37.88
2022-09-23T12:51:03.163Z,37.37
2022-09-23T12:52:16.408Z,34.61
2022-09-23T12:53:33.205Z,36.13
2022-09-23T12:54:34.963Z,35.95
2022-09-23T12:55:36.568Z,36.39
2022-09-23T12:56:38.584Z,35.71
2022-09-23T12:57:41.876Z,35.24
2022-09-23T12:58:43.373Z,34.60
2022-09-23T13:00:22.549Z,32.92
2022-09-23T13:01:26.836Z,33.25
2022-09-23T13:02:34.142Z,33.81
2022-09-23T13:03:54.156Z,33.98
2022-09-23T13:05:40.619Z,35.53
2022-09-23T13:07:08.765Z,35.26
2022-09-23T13:08:19.916Z,35.77
2022-09-23T13:09:30.168Z,36.22
2022-09-23T13:10:44.096Z,36.75
2022-09-23T13:11:52.032Z,36.96
2022-09-23T13:12:55.815Z,37.27
2022-09-23T13:14:02.612Z,37.91
2022-09-23T13:15:13.634Z,39.36
2022-09-23T13:16:35.401Z,40.59
2022-09-23T13:17:43.715Z,38.42
2022-09-23T13:18:54.205Z,39.41
2022-09-23T13:20:11.705Z,40.17
2022-09-23T13:21:37.560Z,40.60
2022-09-23T13:22:54.053Z,40.59
2022-09-23T13:24:15.979Z,40.66
2022-09-23T13:25:32.647Z,39.80
2022-09-23T13:26:36.508Z,40.11
2022-09-23T13:27:38.613Z,39.93
2022-09-23T13:28:58.649Z,40.72
2022-09-23T13:30:06.147Z,40.90
2022-09-23T13:31:15.947Z,41.11
2022-09-23T13:32:22.732Z,40.83
2022-09-23T13:33:32.799Z,41.46
2022-09-23T13:34:38.602Z,41.45
2022-09-23T13:35:52.155Z,40.89
2022-09-23T13:36:53.781Z,41.90
2022-09-23T13:37:56.259Z,41.58
2022-09-23T13:39:27.672Z,41.55
2022-09-23T13:40:33.994Z,41.36
2022-09-23T13:41:38.072Z,41.52
2022-09-23T13:42:41.880Z,42.19
2022-09-23T13:43:54.251Z,42.17
2022-09-23T13:44:59.038Z,42.70
2022-09-23T13:46:01.763Z,42.57
2022-09-23T13:47:08.064Z,42.45
2022-09-23T13:48:15.392Z,42.56
2022-09-23T13:49:24.683Z,43.03
2022-09-23T13:50:28.719Z,44.18
2022-09-23T13:51:35.172Z,44.66
2022-09-23T13:52:39.339Z,43.98
2022-09-23T13:53:41.096Z,43.19
2022-09-23T13:54:49.430Z,43.68
2022-09-23T13:56:05.509Z,43.44
2022-09-23T13:57:29.493Z,43.23
2022-09-23T13:58:33.580Z,43.00
2022-09-23T13:59:42.601Z,43.30
2022-09-23T14:00:47.618Z,42.79
2022-09-23T14:01:49.290Z,42.82
2022-09-23T14:02:51.076Z,43.12
2022-09-23T14:03:55.121Z,43.18
2022-09-23T14:05:10.803Z,43.52
2022-09-23T14:06:15.463Z,43.33
2022-09-23T14:07:21.698Z,43.20
2022-09-23T14:08:25.906Z,42.35
2022-09-23T14:09:29.119Z,42.52
2022-09-23T14:10:31.167Z,43.44
2022-09-23T14:11:43.907Z,41.76
2022-09-23T14:12:47.509Z,43.10
2022-09-23T14:13:54.283Z,43.39
2022-09-23T14:14:59.951Z,43.70
2022-09-23T14:16:09.244Z,43.68
2022-09-23T14:17:18.914Z,42.97
2022-09-23T14:18:41.034Z,45.25
2022-09-23T14:19:43.305Z,43.96
2022-09-23T14:20:47.286Z,44.15
2022-09-23T14:22:00.224Z,43.47
2022-09-23T14:23:12.765Z,44.03
2022-09-23T14:24:20.919Z,44.48
2022-09-23T14:25:26.327Z,44.31
2022-09-23T14:26:28.015Z,44.28
2022-09-23T14:27:36.976Z,44.94
2022-09-23T14:28:38.990Z,45.10
2022-09-23T14:29:47.603Z,44.54
2022-09-23T14:30:52.059Z,45.57
2022-09-23T14:32:01.800Z,45.00
2022-09-23T14:33:09.414Z,45.55
2022-09-23T14:34:43.007Z,45.98
2022-09-23T14:35:54.173Z,45.82
2022-09-23T14:37:17.729Z,46.91
2022-09-23T14:38:44.968Z,47.43
2022-09-23T14:39:53.497Z,47.26
2022-09-23T14:41:18.211Z,47.38
2022-09-23T14:42:20.624Z,46.46
2022-09-23T14:43:25.651Z,46.45
2022-09-23T14:44:28.085Z,46.35
2022-09-23T14:45:39.168Z,47.10
2022-09-23T14:46:50.872Z,46.97
2022-09-23T14:48:10.691Z,47.12
2022-09-23T14:49:12.288Z,48.01
2022-09-23T14:50:55.958Z,47.86
2022-09-23T14:52:03.546Z,46.26
2022-09-23T14:53:20.670Z,46.93